createdAt,value
2019-01-03T00:00:34.604Z,-1.60
2019-01-03T00:03:15.291Z,-1.70
2019-01-03T00:05:58.474Z,-1.70
2019-01-03T00:08:39.554Z,-1.70
2019-01-03T00:11:26.204Z,-1.70
2019-01-03T00:14:14.860Z,-1.70
2019-01-03T00:17:01.621Z,-1.70
2019-01-03T00:19:54.023Z,-1.70
2019-01-03T00:22:40.991Z,-1.80
2019-01-03T00:25:30.611Z,-1.80
2019-01-03T00:28:21.208Z,-1.70
2019-01-03T00:31:08.072Z,-1.80
2019-01-03T00:33:53.235Z,-1.80
2019-01-03T00:36:56.527Z,-1.80
2019-01-03T00:39:39.034Z,-1.80
2019-01-03T00:42:25.771Z,-1.90
2019-01-03T00:45:13.703Z,-1.90
2019-01-03T00:47:53.460Z,-1.90
2019-01-03T00:50:46.534Z,-1.80
2019-01-03T00:53:34.106Z,-1.80
2019-01-03T00:56:17.900Z,-1.80
2019-01-03T00:59:05.157Z,-1.80
2019-01-03T01:02:02.671Z,-1.80
2019-01-03T01:05:08.880Z,-1.80
2019-01-03T01:07:56.023Z,-1.80
2019-01-03T01:10:55.186Z,-1.90
2019-01-03T01:13:44.033Z,-1.80
2019-01-03T01:16:51.800Z,-1.90
2019-01-03T01:19:40.845Z,-1.90
2019-01-03T01:22:28.141Z,-1.90
2019-01-03T01:25:18.623Z,-1.90
2019-01-03T01:28:00.520Z,-1.90
2019-01-03T01:30:42.747Z,-1.90
2019-01-03T01:33:42.411Z,-1.90
2019-01-03T01:36:40.415Z,-1.90
2019-01-03T01:39:28.578Z,-1.90
2019-01-03T01:42:09.319Z,-2.00
2019-01-03T01:44:57.223Z,-2.00
2019-01-03T01:47:48.391Z,-1.90
2019-01-03T01:50:36.283Z,-1.90
2019-01-03T01:53:15.054Z,-2.00
2019-01-03T01:56:06.723Z,-1.90
2019-01-03T01:58:45.283Z,-1.90
2019-01-03T02:01:25.300Z,-1.90
2019-01-03T02:04:13.220Z,-1.90
2019-01-03T02:07:00.400Z,-1.90
2019-01-03T02:09:56.018Z,-2.00
2019-01-03T02:12:46.195Z,-2.00
2019-01-03T02:15:41.295Z,-2.00
2019-01-03T02:18:33.856Z,-1.90
2019-01-03T02:21:22.653Z,-1.90
2019-01-03T02:24:09.427Z,-1.90
2019-01-03T02:26:56.360Z,-1.80
2019-01-03T02:30:01.172Z,-1.80
2019-01-03T02:32:52.244Z,-1.70
2019-01-03T02:35:34.251Z,-1.80
2019-01-03T02:38:37.276Z,-1.70
2019-01-03T02:41:28.260Z,-1.70
2019-01-03T02:44:19.639Z,-1.70
2019-01-03T02:47:26.367Z,-1.70
2019-01-03T02:50:13.183Z,-1.60
2019-01-03T02:52:54.976Z,-1.70
2019-01-03T02:55:58.196Z,-1.70
2019-01-03T02:58:41.043Z,-1.80
2019-01-03T03:01:23.265Z,-1.80
2019-01-03T03:04:07.073Z,-1.90
2019-01-03T03:06:53.839Z,-1.90
2019-01-03T03:09:32.471Z,-1.90
2019-01-03T03:12:38.922Z,-1.90
2019-01-03T03:15:21.248Z,-1.90
2019-01-03T03:18:11.866Z,-2.00
2019-01-03T03:21:00.224Z,-1.90
2019-01-03T03:23:51.405Z,-1.90
2019-01-03T03:26:39.400Z,-1.90
2019-01-03T03:29:24.079Z,-2.00
2019-01-03T03:32:11.160Z,-1.90
2019-01-03T03:34:57.775Z,-1.90
2019-01-03T03:37:38.409Z,-2.00
2019-01-03T03:40:29.407Z,-2.00
2019-01-03T03:43:20.310Z,-2.00
2019-01-03T03:46:20.376Z,-2.00
2019-01-03T03:49:03.688Z,-2.00
2019-01-03T03:51:50.386Z,-1.90
2019-01-03T03:54:50.579Z,-1.90
2019-01-03T03:57:40.119Z,-1.90
2019-01-03T04:00:44.588Z,-2.00
2019-01-03T04:03:40.420Z,-2.00
2019-01-03T04:06:35.719Z,-2.00
2019-01-03T04:09:29.536Z,-2.00
2019-01-03T04:12:17.443Z,-2.00
2019-01-03T04:14:58.332Z,-2.00
2019-01-03T04:17:45.363Z,-2.00
2019-01-03T04:20:28.036Z,-2.00
2019-01-03T04:23:10.270Z,-1.90
2019-01-03T04:25:58.347Z,-1.90
2019-01-03T04:28:49.689Z,-2.00
2019-01-03T04:31:38.180Z,-2.00
2019-01-03T04:34:29.373Z,-1.30
2019-01-03T04:37:16.585Z,-0.90
2019-01-03T04:40:03.668Z,-0.90
2019-01-03T04:42:57.814Z,-0.60
2019-01-03T04:45:45.753Z,-0.60
2019-01-03T04:48:28.676Z,-0.70
2019-01-03T04:51:15.386Z,-0.70
2019-01-03T04:54:03.232Z,-0.80
2019-01-03T04:56:51.774Z,-0.70
2019-01-03T04:59:38.928Z,-0.70
2019-01-03T05:02:25.644Z,-0.80
2019-01-03T05:05:15.068Z,-1.20
2019-01-03T05:08:02.673Z,-1.30
2019-01-03T05:10:50.818Z,-1.40
2019-01-03T05:13:37.531Z,-1.40
2019-01-03T05:16:38.767Z,-1.40
2019-01-03T05:19:26.258Z,-1.50
2019-01-03T05:22:14.260Z,-1.40
2019-01-03T05:25:09.867Z,-1.50
2019-01-03T05:27:56.713Z,-1.50
2019-01-03T05:30:43.702Z,-1.40
2019-01-03T05:33:31.649Z,-1.40
2019-01-03T05:36:18.678Z,-1.50
2019-01-03T05:39:09.345Z,-1.50
2019-01-03T05:42:03.499Z,-1.40
2019-01-03T05:44:43.595Z,-1.40
2019-01-03T05:47:47.078Z,-1.20
2019-01-03T05:50:38.757Z,-1.30
2019-01-03T05:53:23.351Z,-1.20
2019-01-03T05:56:13.047Z,-1.30
2019-01-03T05:59:00.414Z,-1.20
2019-01-03T06:01:47.561Z,-1.20
2019-01-03T06:04:34.429Z,-1.20
2019-01-03T06:07:25.956Z,-1.00
2019-01-03T06:10:15.925Z,-1.00
2019-01-03T06:12:57.316Z,-0.90
2019-01-03T06:15:51.875Z,-1.00
2019-01-03T06:18:38.900Z,-1.00
2019-01-03T06:21:20.503Z,-1.00
2019-01-03T06:24:08.604Z,-0.90
2019-01-03T06:26:59.456Z,-0.90
2019-01-03T06:29:56.606Z,-0.90
2019-01-03T06:32:47.618Z,-0.90
2019-01-03T06:35:50.827Z,-0.80
2019-01-03T06:38:57.251Z,-0.60
2019-01-03T06:41:48.480Z,-0.60
2019-01-03T06:44:37.657Z,-0.50
2019-01-03T06:47:25.452Z,-0.40
2019-01-03T06:50:23.245Z,-0.50
2019-01-03T06:53:20.442Z,-0.40
2019-01-03T06:56:07.144Z,-0.50
2019-01-03T06:58:58.287Z,-0.40
2019-01-03T07:01:37.155Z,-0.40
2019-01-03T07:04:28.323Z,-0.40
2019-01-03T07:07:18.764Z,-0.30
2019-01-03T07:10:05.384Z,-0.30
2019-01-03T07:12:52.431Z,-0.30
2019-01-03T07:15:49.579Z,-0.30
2019-01-03T07:18:36.564Z,-0.20
2019-01-03T07:21:28.081Z,-0.30
2019-01-03T07:24:28.405Z,-0.30
2019-01-03T07:27:15.124Z,-0.20
2019-01-03T07:30:10.065Z,-0.20
2019-01-03T07:33:03.378Z,-0.30
2019-01-03T07:35:50.192Z,-0.20
2019-01-03T07:38:47.504Z,-0.20
2019-01-03T07:41:44.600Z,-0.10
2019-01-03T07:44:44.710Z,0.10
2019-01-03T07:47:31.908Z,0.00
2019-01-03T07:50:18.185Z,0.10
2019-01-03T07:53:14.458Z,0.00
2019-01-03T07:56:14.316Z,0.00
2019-01-03T07:59:14.969Z,0.10
2019-01-03T08:02:03.197Z,0.00
2019-01-03T08:04:51.249Z,0.10
2019-01-03T08:07:45.612Z,0.00
2019-01-03T08:10:32.704Z,0.20
2019-01-03T08:13:23.839Z,0.30
2019-01-03T08:16:11.853Z,0.40
2019-01-03T08:18:58.994Z,0.50
2019-01-03T08:21:43.288Z,0.50
2019-01-03T08:24:30.438Z,0.50
2019-01-03T08:27:17.897Z,0.60
2019-01-03T08:30:06.681Z,0.50
2019-01-03T08:32:50.740Z,0.40
2019-01-03T08:35:37.693Z,0.50
2019-01-03T08:38:25.762Z,0.60
2019-01-03T08:41:14.308Z,0.60
2019-01-03T08:44:05.768Z,0.50
2019-01-03T08:47:00.640Z,0.70
2019-01-03T08:49:48.564Z,0.50
2019-01-03T08:52:42.277Z,0.40
2019-01-03T08:55:28.977Z,0.40
2019-01-03T08:58:22.974Z,0.50
2019-01-03T09:01:26.437Z,0.50
2019-01-03T09:04:13.711Z,0.50
2019-01-03T09:07:08.428Z,0.60
2019-01-03T09:10:00.921Z,0.60
2019-01-03T09:12:57.547Z,0.60
2019-01-03T09:15:44.563Z,0.70
2019-01-03T09:18:38.638Z,0.60
2019-01-03T09:21:29.572Z,0.70
2019-01-03T09:24:16.177Z,0.70
2019-01-03T09:27:16.486Z,0.90
2019-01-03T09:30:10.206Z,0.90
2019-01-03T09:32:48.004Z,0.90
2019-01-03T09:35:35.035Z,0.70
2019-01-03T09:38:37.439Z,0.80
2019-01-03T09:41:21.921Z,0.80
2019-01-03T09:44:08.949Z,0.70
2019-01-03T09:46:38.300Z,0.70
2019-01-03T09:49:08.832Z,0.60
2019-01-03T09:51:38.897Z,0.60
2019-01-03T09:54:07.791Z,0.70
2019-01-03T09:56:36.689Z,0.60
2019-01-03T09:59:05.876Z,0.70
2019-01-03T10:01:34.735Z,0.80
2019-01-03T10:04:03.960Z,0.90
2019-01-03T10:06:33.162Z,0.80
2019-01-03T10:09:02.028Z,0.70
2019-01-03T10:11:30.773Z,0.80
2019-01-03T10:13:59.648Z,0.80
2019-01-03T10:16:28.976Z,1.10
2019-01-03T10:18:57.959Z,1.00
2019-01-03T10:21:26.813Z,1.20
2019-01-03T10:23:56.527Z,1.00
2019-01-03T10:26:25.816Z,0.90
2019-01-03T10:28:54.761Z,0.90
2019-01-03T10:31:24.047Z,0.90
2019-01-03T10:33:57.763Z,0.90
2019-01-03T10:36:27.629Z,0.90
2019-01-03T10:38:56.566Z,0.90
2019-01-03T10:41:25.610Z,0.80
2019-01-03T10:43:54.606Z,0.80
2019-01-03T10:46:23.885Z,0.70
2019-01-03T10:48:52.838Z,0.60
2019-01-03T10:51:21.717Z,0.70
2019-01-03T10:53:50.603Z,0.80
2019-01-03T10:56:19.424Z,0.80
2019-01-03T10:58:48.523Z,0.90
2019-01-03T11:01:17.431Z,0.90
2019-01-03T11:03:46.340Z,0.90
2019-01-03T11:06:15.123Z,1.00
2019-01-03T11:08:43.883Z,1.00
2019-01-03T11:11:13.352Z,1.10
2019-01-03T11:13:42.311Z,1.10
2019-01-03T11:16:11.120Z,1.10
2019-01-03T11:18:40.048Z,1.00
2019-01-03T11:21:08.925Z,0.90
2019-01-03T11:23:38.219Z,0.90
2019-01-03T11:26:07.026Z,0.90
2019-01-03T11:28:35.922Z,0.80
2019-01-03T11:31:04.882Z,0.80
2019-01-03T11:33:33.834Z,1.00
2019-01-03T11:36:02.611Z,0.90
2019-01-03T11:38:31.663Z,0.80
2019-01-03T11:41:00.792Z,0.80
2019-01-03T11:43:30.393Z,0.70
2019-01-03T11:45:59.618Z,0.60
2019-01-03T11:48:28.455Z,0.50
2019-01-03T11:50:57.556Z,0.40
2019-01-03T11:53:27.479Z,0.40
2019-01-03T11:55:56.338Z,0.40
2019-01-03T11:58:25.257Z,0.40
2019-01-03T12:00:54.535Z,0.30
2019-01-03T12:03:23.452Z,0.40
2019-01-03T12:05:53.492Z,0.50
2019-01-03T12:08:23.319Z,0.30
2019-01-03T12:10:52.227Z,0.60
2019-01-03T12:13:21.044Z,0.60
2019-01-03T12:15:51.160Z,0.60
2019-01-03T12:18:20.420Z,0.60
2019-01-03T12:20:49.267Z,0.70
2019-01-03T12:23:19.404Z,0.70
2019-01-03T12:25:48.308Z,0.60
2019-01-03T12:28:17.256Z,0.60
2019-01-03T12:30:47.064Z,0.40
2019-01-03T12:33:16.903Z,0.40
2019-01-03T12:35:45.765Z,0.50
2019-01-03T12:38:14.591Z,0.50
2019-01-03T12:40:43.471Z,0.50
2019-01-03T12:43:12.360Z,0.50
2019-01-03T12:45:41.251Z,0.60
2019-01-03T12:48:12.107Z,0.50
2019-01-03T12:50:41.021Z,0.50
2019-01-03T12:53:09.983Z,0.60
2019-01-03T12:55:38.868Z,0.50
2019-01-03T12:58:07.859Z,0.50
2019-01-03T13:00:36.742Z,0.50
2019-01-03T13:03:05.707Z,0.50
2019-01-03T13:05:34.520Z,0.50
2019-01-03T13:08:03.526Z,0.50
2019-01-03T13:10:32.833Z,0.60
2019-01-03T13:13:01.701Z,0.60
2019-01-03T13:15:30.637Z,0.60
2019-01-03T13:17:59.534Z,0.60
2019-01-03T13:20:28.451Z,0.50
2019-01-03T13:22:57.203Z,0.50
2019-01-03T13:25:26.240Z,0.50
2019-01-03T13:27:55.451Z,0.50
2019-01-03T13:30:24.251Z,0.70
2019-01-03T13:32:53.132Z,0.70
2019-01-03T13:35:21.938Z,0.70
2019-01-03T13:37:51.214Z,0.70
2019-01-03T13:40:20.091Z,0.70
2019-01-03T13:42:49.052Z,0.70
2019-01-03T13:45:18.095Z,0.80
2019-01-03T13:47:48.162Z,0.90
2019-01-03T13:50:17.507Z,0.80
2019-01-03T13:52:48.616Z,0.90
2019-01-03T13:55:17.363Z,0.90
2019-01-03T13:57:46.104Z,0.80
2019-01-03T14:00:15.326Z,0.70
2019-01-03T14:02:44.080Z,0.60
2019-01-03T14:05:12.934Z,0.50
2019-01-03T14:07:41.767Z,0.60
2019-01-03T14:10:10.960Z,0.60
2019-01-03T14:12:40.072Z,0.60
2019-01-03T14:15:09.407Z,0.60
2019-01-03T14:17:38.457Z,0.70
2019-01-03T14:20:10.335Z,0.70
2019-01-03T14:22:39.211Z,0.60
2019-01-03T14:25:08.321Z,0.60
2019-01-03T14:27:37.181Z,0.60
2019-01-03T14:30:06.904Z,0.50
2019-01-03T14:32:36.808Z,0.50
2019-01-03T14:35:06.000Z,0.40
2019-01-03T14:37:35.540Z,0.40
2019-01-03T14:40:04.770Z,0.40
2019-01-03T14:42:33.778Z,0.40
2019-01-03T14:45:02.871Z,0.30
2019-01-03T14:47:31.955Z,0.30
2019-01-03T14:50:01.161Z,0.20
2019-01-03T14:52:30.180Z,0.20
2019-01-03T14:54:59.012Z,0.20
2019-01-03T14:57:28.992Z,0.20
2019-01-03T14:59:57.909Z,0.20
2019-01-03T15:02:27.136Z,0.20
2019-01-03T15:04:56.669Z,0.10
2019-01-03T15:07:27.567Z,0.10
2019-01-03T15:09:56.601Z,0.20
2019-01-03T15:12:25.655Z,0.10
2019-01-03T15:14:54.879Z,0.30
2019-01-03T15:17:23.626Z,0.40
2019-01-03T15:19:53.793Z,0.40
2019-01-03T15:22:22.823Z,0.30
2019-01-03T15:24:51.756Z,0.30
2019-01-03T15:27:20.506Z,0.30
2019-01-03T15:29:49.336Z,0.40
2019-01-03T15:32:18.198Z,0.20
2019-01-03T15:34:47.039Z,0.10
2019-01-03T15:37:15.869Z,0.00
2019-01-03T15:39:44.888Z,0.00
2019-01-03T15:42:13.884Z,-0.10
2019-01-03T15:44:42.760Z,-0.10
2019-01-03T15:47:11.907Z,-0.10
2019-01-03T15:49:42.485Z,-0.10
2019-01-03T15:52:11.387Z,-0.20
2019-01-03T15:54:40.180Z,-0.20
2019-01-03T15:57:09.012Z,-0.20
2019-01-03T15:59:38.270Z,-0.20
2019-01-03T16:02:07.149Z,-0.20
2019-01-03T16:04:35.964Z,-0.20
2019-01-03T16:07:04.858Z,-0.20
2019-01-03T16:09:34.119Z,-0.30
2019-01-03T16:12:03.424Z,-0.30
2019-01-03T16:14:32.346Z,-0.30
2019-01-03T16:17:01.783Z,-0.30
2019-01-03T16:19:30.608Z,-0.30
2019-01-03T16:21:59.440Z,-0.30
2019-01-03T16:24:28.291Z,-0.30
2019-01-03T16:26:57.071Z,-0.20
2019-01-03T16:29:26.462Z,-0.30
2019-01-03T16:31:55.339Z,-0.30
2019-01-03T16:34:24.427Z,-0.20
2019-01-03T16:36:53.580Z,-0.30
2019-01-03T16:39:23.859Z,-0.30
2019-01-03T16:41:52.891Z,-0.30
2019-01-03T16:44:21.824Z,-0.30
2019-01-03T16:46:50.758Z,-0.40
2019-01-03T16:49:19.920Z,-0.40
2019-01-03T16:51:48.934Z,-0.40
2019-01-03T16:54:18.080Z,-0.40
2019-01-03T16:56:47.153Z,-0.60
2019-01-03T16:59:16.055Z,-0.60
2019-01-03T17:01:45.054Z,-0.60
2019-01-03T17:04:13.899Z,-0.50
2019-01-03T17:06:42.873Z,-0.50
2019-01-03T17:09:11.910Z,-0.50
2019-01-03T17:11:41.060Z,-0.60
2019-01-03T17:14:10.348Z,-0.60
2019-01-03T17:16:40.270Z,-0.60
2019-01-03T17:19:09.552Z,-0.70
2019-01-03T17:21:38.767Z,-0.80
2019-01-03T17:24:07.703Z,-0.80
2019-01-03T17:26:36.690Z,-0.70
2019-01-03T17:29:05.859Z,-0.80
2019-01-03T17:31:34.805Z,-0.80
2019-01-03T17:34:03.690Z,-0.80
2019-01-03T17:36:32.634Z,-0.90
2019-01-03T17:39:01.764Z,-0.90
2019-01-03T17:41:31.131Z,-1.00
2019-01-03T17:44:00.681Z,-1.00
2019-01-03T17:46:30.302Z,-1.00
2019-01-03T17:48:59.328Z,-1.00
2019-01-03T17:51:29.237Z,-1.00
2019-01-03T17:53:58.380Z,-1.10
2019-01-03T17:56:27.215Z,-1.10
2019-01-03T17:58:56.382Z,-1.10
2019-01-03T18:01:25.457Z,-1.20
2019-01-03T18:03:55.652Z,-1.30
2019-01-03T18:06:24.605Z,-1.30
2019-01-03T18:08:53.679Z,-1.30
2019-01-03T18:11:23.295Z,-1.30
2019-01-03T18:13:52.200Z,-1.20
2019-01-03T18:16:22.114Z,-1.10
2019-01-03T18:18:51.170Z,-0.90
2019-01-03T18:21:20.023Z,-1.10
2019-01-03T18:23:49.775Z,-1.20
2019-01-03T18:26:18.735Z,-1.30
2019-01-03T18:28:47.731Z,-1.40
2019-01-03T18:31:17.078Z,-1.40
2019-01-03T18:33:46.329Z,-1.40
2019-01-03T18:36:15.698Z,-1.40
2019-01-03T18:38:44.534Z,-1.40
2019-01-03T18:41:13.544Z,-1.40
2019-01-03T18:43:42.344Z,-1.40
2019-01-03T18:46:11.221Z,-1.50
2019-01-03T18:48:40.158Z,-1.50
2019-01-03T18:51:09.328Z,-1.50
2019-01-03T18:53:38.242Z,-1.50
2019-01-03T18:56:08.380Z,-1.40
2019-01-03T18:58:37.553Z,-1.40
2019-01-03T19:01:06.516Z,-1.40
2019-01-03T19:03:35.501Z,-1.40
2019-01-03T19:06:04.864Z,-1.40
2019-01-03T19:08:33.815Z,-1.30
2019-01-03T19:11:02.820Z,-1.30
2019-01-03T19:13:31.964Z,-1.20
2019-01-03T19:16:01.142Z,-1.20
2019-01-03T19:18:29.931Z,-1.10
2019-01-03T19:20:59.335Z,-1.20
2019-01-03T19:23:28.398Z,-1.30
2019-01-03T19:25:58.881Z,-1.30
2019-01-03T19:28:28.579Z,-1.40
2019-01-03T19:30:57.681Z,-1.50
2019-01-03T19:33:26.617Z,-1.50
2019-01-03T19:35:55.599Z,-1.50
2019-01-03T19:38:24.602Z,-1.60
2019-01-03T19:40:55.417Z,-1.50
2019-01-03T19:43:24.980Z,-1.60
2019-01-03T19:45:54.330Z,-1.60
2019-01-03T19:48:23.732Z,-1.70
2019-01-03T19:50:52.892Z,-1.70
2019-01-03T19:53:22.349Z,-1.70
2019-01-03T19:55:51.813Z,-1.60
2019-01-03T19:58:21.065Z,-1.60
2019-01-03T20:00:50.409Z,-1.60
2019-01-03T20:03:19.351Z,-1.60
2019-01-03T20:05:49.004Z,-1.50
2019-01-03T20:08:18.448Z,-1.50
2019-01-03T20:10:47.413Z,-1.60
2019-01-03T20:13:17.845Z,-1.50
2019-01-03T20:15:46.891Z,-1.50
2019-01-03T20:18:15.987Z,-1.60
2019-01-03T20:20:44.869Z,-1.70
2019-01-03T20:23:15.156Z,-1.70
2019-01-03T20:25:44.767Z,-1.80
2019-01-03T20:28:13.832Z,-1.70
2019-01-03T20:30:43.378Z,-1.70
2019-01-03T20:33:12.680Z,-1.80
2019-01-03T20:35:41.886Z,-1.80
2019-01-03T20:38:10.947Z,-1.80
2019-01-03T20:40:40.625Z,-1.90
2019-01-03T20:43:09.631Z,-1.90
2019-01-03T20:45:38.803Z,-2.00
2019-01-03T20:48:07.879Z,-2.00
2019-01-03T20:50:36.977Z,-2.00
2019-01-03T20:53:06.327Z,-2.10
2019-01-03T20:55:35.565Z,-2.10
2019-01-03T20:58:04.630Z,-2.10
2019-01-03T21:00:33.922Z,-2.10
2019-01-03T21:03:03.405Z,-2.10
2019-01-03T21:05:32.571Z,-2.10
2019-01-03T21:08:04.602Z,-2.20
2019-01-03T21:10:33.801Z,-2.20
2019-01-03T21:13:03.068Z,-2.20
2019-01-03T21:15:32.082Z,-2.20
2019-01-03T21:18:01.267Z,-2.30
2019-01-03T21:20:30.857Z,-2.30
2019-01-03T21:22:59.703Z,-2.20
2019-01-03T21:25:28.775Z,-2.30
2019-01-03T21:27:58.675Z,-2.30
2019-01-03T21:30:27.591Z,-2.40
2019-01-03T21:32:56.651Z,-2.40
2019-01-03T21:35:25.773Z,-2.40
2019-01-03T21:37:55.320Z,-2.40
2019-01-03T21:40:24.535Z,-2.40
2019-01-03T21:42:53.517Z,-2.40
2019-01-03T21:45:22.456Z,-2.40
2019-01-03T21:47:51.784Z,-2.40
2019-01-03T21:50:20.742Z,-2.30
2019-01-03T21:52:52.071Z,-2.30
2019-01-03T21:55:21.205Z,-2.30
2019-01-03T21:57:51.960Z,-2.40
2019-01-03T22:00:21.336Z,-2.40
2019-01-03T22:02:50.403Z,-2.30
2019-01-03T22:05:20.023Z,-2.40
2019-01-03T22:07:49.574Z,-2.40
2019-01-03T22:10:18.913Z,-2.40
2019-01-03T22:12:48.072Z,-2.50
2019-01-03T22:15:17.300Z,-2.50
2019-01-03T22:17:46.548Z,-2.50
2019-01-03T22:20:17.653Z,-2.50
2019-01-03T22:22:47.054Z,-2.50
2019-01-03T22:25:16.349Z,-2.50
2019-01-03T22:27:46.310Z,-2.50
2019-01-03T22:30:15.332Z,-2.50
2019-01-03T22:32:44.675Z,-2.50
2019-01-03T22:35:14.705Z,-2.60
2019-01-03T22:37:43.983Z,-2.60
2019-01-03T22:40:13.498Z,-2.60
2019-01-03T22:42:42.848Z,-2.60
2019-01-03T22:45:12.768Z,-2.50
2019-01-03T22:47:41.782Z,-2.50
2019-01-03T22:50:11.746Z,-2.60
2019-01-03T22:52:41.638Z,-2.50
2019-01-03T22:55:10.934Z,-2.50
2019-01-03T22:57:39.922Z,-2.50
2019-01-03T23:00:28.374Z,-2.50
2019-01-03T23:02:57.318Z,-2.50
2019-01-03T23:05:26.689Z,-2.60
2019-01-03T23:07:55.625Z,-2.60
2019-01-03T23:10:25.296Z,-2.60
2019-01-03T23:12:54.328Z,-2.70
2019-01-03T23:15:23.206Z,-2.70
2019-01-03T23:17:52.465Z,-2.70
2019-01-03T23:20:21.782Z,-2.80
2019-01-03T23:22:51.208Z,-2.80
2019-01-03T23:25:20.417Z,-2.90
2019-01-03T23:27:49.204Z,-2.90
2019-01-03T23:30:18.373Z,-3.00
2019-01-03T23:32:47.467Z,-3.00
2019-01-03T23:35:16.832Z,-3.00
2019-01-03T23:37:45.672Z,-3.00
2019-01-03T23:40:14.692Z,-3.00
2019-01-03T23:42:44.336Z,-3.10
2019-01-03T23:45:31.147Z,-3.20
2019-01-03T23:48:00.932Z,-3.30
2019-01-03T23:50:34.246Z,-3.40
2019-01-03T23:53:03.380Z,-3.10
2019-01-03T23:55:36.341Z,-2.90
2019-01-03T23:58:05.255Z,-2.90
